Terminal Aerodrome Forecast
Issued by NWS St Louis, MO

Home | Current Version | Previous Version | Text Only | Print | Product List | Glossary Off
Versions: 1 2 3 4 5 6 7 8 9 10 11 12 13 14 15 16 17 18 19 20 21 22 23 24 25

889
FTUS43 KLSX 271724
TAFCOU
TAF
KCOU 271724Z 2718/2818 22006KT P6SM SCT025 BKN120
     FM280100 VRB04KT P6SM SCT050 BKN250
     FM281400 14006KT P6SM SCT050 SCT250=

USA.gov is the U.S. government's official web portal to all federal, state and local government web resources and services.